Time;durP1;ratioP1;P1;durP2;ratioP2;P2;SDS_P1;SDS_P2;PMS_P1;PMS_P2;Temp;Humidity;BMP_temperature;BMP_pressure;BME280_temperature;BME280_humidity;BME280_pressure;Samples;Min_cycle;Max_cycle;Signal;HPM_P1;HPM_P2
2022/03/07 00:01:00;;;;;;;1.75;1.67;;;2.30;99.90;;;;;;5058566;28;20212;-63
2022/03/07 00:03:27;;;;;;;1.75;1.65;;;2.20;99.90;;;;;;5058979;28;20315;-62
2022/03/07 00:05:56;;;;;;;1.90;1.80;;;2.20;99.90;;;;;;5072986;28;20364;-62
2022/03/07 00:08:23;;;;;;;2.00;1.90;;;2.20;99.90;;;;;;5069584;28;20255;-63
2022/03/07 00:10:50;;;;;;;1.90;1.80;;;2.20;99.90;;;;;;5055030;28;21072;-62
2022/03/07 00:13:17;;;;;;;1.90;1.80;;;2.10;99.90;;;;;;5059247;28;20249;-63
2022/03/07 00:15:44;;;;;;;1.90;1.80;;;2.10;99.90;;;;;;5056502;28;20204;-65
2022/03/07 00:18:11;;;;;;;1.98;1.88;;;2.10;99.90;;;;;;5061311;28;20203;-62
2022/03/07 00:20:38;;;;;;;1.90;1.80;;;2.00;99.90;;;;;;5055324;28;20274;-63
2022/03/07 00:23:06;;;;;;;1.75;1.65;;;2.10;99.90;;;;;;5056548;28;20582;-63
2022/03/07 00:25:33;;;;;;;1.80;1.70;;;2.00;99.90;;;;;;5056370;28;20212;-61
2022/03/07 00:28:00;;;;;;;1.83;1.73;;;2.00;99.90;;;;;;5055949;28;20255;-62
2022/03/07 00:30:26;;;;;;;1.90;1.80;;;2.00;99.90;;;;;;5057147;28;20291;-61
2022/03/07 00:32:53;;;;;;;1.90;1.80;;;2.00;99.90;;;;;;5054265;28;20220;-63
2022/03/07 00:35:20;;;;;;;1.80;1.70;;;1.90;99.90;;;;;;5056771;28;20250;-62
2022/03/07 00:37:47;;;;;;;1.85;1.75;;;1.90;99.90;;;;;;5056138;28;20196;-62
2022/03/07 00:40:16;;;;;;;2.10;2.00;;;1.80;99.90;;;;;;5056250;28;20244;-62
2022/03/07 00:42:42;;;;;;;1.80;1.70;;;1.80;99.90;;;;;;5059302;28;20306;-63
2022/03/07 00:45:11;;;;;;;2.00;1.90;;;1.90;99.90;;;;;;5063074;28;20204;-63
2022/03/07 00:47:38;;;;;;;2.00;1.90;;;2.00;99.90;;;;;;5061471;28;20223;-63
2022/03/07 00:50:06;;;;;;;2.13;2.03;;;2.00;99.90;;;;;;5056164;28;20257;-63
2022/03/07 00:52:33;;;;;;;2.00;1.90;;;2.00;99.90;;;;;;5060454;28;20234;-63
2022/03/07 00:55:00;;;;;;;2.10;2.00;;;2.00;99.90;;;;;;5062710;28;20303;-61
2022/03/07 00:57:29;;;;;;;1.77;1.67;;;1.90;99.90;;;;;;5064735;28;20202;-61
2022/03/07 00:59:56;;;;;;;1.85;1.75;;;1.80;99.90;;;;;;5062667;28;20203;-61
2022/03/07 01:02:22;;;;;;;1.70;1.60;;;1.90;99.90;;;;;;5059252;28;20234;-62
2022/03/07 01:04:50;;;;;;;1.55;1.50;;;1.80;99.90;;;;;;5068430;28;20210;-63
2022/03/07 01:07:17;;;;;;;1.92;1.83;;;1.90;99.90;;;;;;5061438;28;20964;-62
2022/03/07 01:09:44;;;;;;;1.50;1.50;;;1.90;99.90;;;;;;5060047;28;20200;-62
2022/03/07 01:12:11;;;;;;;1.90;1.80;;;1.90;99.90;;;;;;5058510;28;20219;-63
2022/03/07 01:14:39;;;;;;;1.80;1.70;;;1.80;99.90;;;;;;5053061;28;20223;-63
2022/03/07 01:17:06;;;;;;;1.65;1.60;;;1.90;99.90;;;;;;5056798;28;20271;-63
2022/03/07 01:19:33;;;;;;;1.90;1.80;;;1.90;99.90;;;;;;5056895;28;20208;-61
2022/03/07 01:22:00;;;;;;;1.50;1.50;;;2.00;99.90;;;;;;5060152;28;20263;-63
2022/03/07 01:24:30;;;;;;;2.00;1.90;;;2.00;99.90;;;;;;5055822;28;20290;-64
2022/03/07 01:26:56;;;;;;;1.92;1.83;;;2.10;99.90;;;;;;5059829;28;20319;-61
2022/03/07 01:29:23;;;;;;;1.90;1.80;;;2.10;99.90;;;;;;5065038;28;20298;-63
2022/03/07 01:31:52;;;;;;;1.80;1.70;;;2.10;99.90;;;;;;5070162;28;20254;-62
2022/03/07 01:34:19;;;;;;;1.90;1.80;;;2.10;99.90;;;;;;5070993;28;20215;-62
2022/03/07 01:36:46;;;;;;;1.65;1.63;;;2.10;99.90;;;;;;5072209;28;20266;-68
2022/03/07 01:39:13;;;;;;;1.90;1.80;;;2.30;99.90;;;;;;5089626;28;20227;-62
2022/03/07 01:41:40;;;;;;;2.03;1.92;;;2.40;99.90;;;;;;5083558;28;20286;-63
2022/03/07 01:44:18;;;;;;;2.08;1.98;;;2.40;99.90;;;;;;5075960;28;20242;-62
2022/03/07 01:46:44;;;;;;;1.90;1.80;;;2.50;99.90;;;;;;5072922;28;20207;-63
2022/03/07 01:49:13;;;;;;;1.98;1.88;;;2.40;99.90;;;;;;5066774;28;20238;-62
2022/03/07 01:51:42;;;;;;;2.33;2.22;;;2.40;99.90;;;;;;5056976;28;20240;-61
2022/03/07 01:54:10;;;;;;;2.10;2.00;;;2.40;99.90;;;;;;5060585;28;20203;-63
2022/03/07 01:56:37;;;;;;;1.95;1.85;;;2.30;99.90;;;;;;5059343;28;20295;-62
2022/03/07 01:59:04;;;;;;;2.05;1.95;;;2.30;99.90;;;;;;5065536;28;20214;-62
2022/03/07 02:01:31;;;;;;;1.92;1.83;;;2.30;99.90;;;;;;5062650;28;20231;-64
2022/03/07 02:03:59;;;;;;;1.90;1.80;;;2.30;99.90;;;;;;5066738;28;20222;-62
2022/03/07 02:06:27;;;;;;;1.90;1.80;;;2.20;99.90;;;;;;5062324;28;20208;-62
2022/03/07 02:08:55;;;;;;;1.90;1.80;;;2.20;99.90;;;;;;5061297;28;20258;-62
2022/03/07 02:11:22;;;;;;;2.40;2.30;;;2.10;99.90;;;;;;5061694;28;20291;-62
2022/03/07 02:13:49;;;;;;;2.08;1.98;;;2.20;99.90;;;;;;5061187;28;20282;-63
2022/03/07 02:16:17;;;;;;;1.95;1.85;;;2.10;99.90;;;;;;5058060;28;20290;-62
2022/03/07 02:18:44;;;;;;;1.90;1.80;;;2.20;99.90;;;;;;5050560;28;20188;-63
2022/03/07 02:21:14;;;;;;;2.10;2.00;;;2.20;99.90;;;;;;5049604;28;20243;-63
2022/03/07 02:23:43;;;;;;;1.90;1.80;;;2.20;99.90;;;;;;5085397;22;20321;-64
2022/03/07 02:26:10;;;;;;;1.83;1.73;;;2.30;99.90;;;;;;5080702;28;20256;-62
2022/03/07 02:28:38;;;;;;;1.85;1.75;;;2.30;99.90;;;;;;5086134;28;20622;-65
2022/03/07 02:31:05;;;;;;;2.13;2.03;;;2.30;99.90;;;;;;5083059;28;20203;-63
2022/03/07 02:33:33;;;;;;;2.20;2.10;;;2.30;99.90;;;;;;5091517;28;20772;-65
2022/03/07 02:36:00;;;;;;;2.20;2.10;;;2.30;99.90;;;;;;5091196;28;20234;-64
2022/03/07 02:38:27;;;;;;;2.10;2.00;;;2.20;99.90;;;;;;5096587;28;20234;-65
2022/03/07 02:40:55;;;;;;;2.20;2.10;;;2.30;99.90;;;;;;5090876;28;20203;-66
2022/03/07 02:43:23;;;;;;;2.00;1.90;;;2.40;99.90;;;;;;5091871;28;20222;-65
2022/03/07 02:45:51;;;;;;;2.00;1.90;;;2.30;99.90;;;;;;5087302;28;20210;-64
2022/03/07 02:48:19;;;;;;;1.98;1.88;;;2.20;99.90;;;;;;5089859;28;20704;-63
2022/03/07 02:50:46;;;;;;;1.58;1.55;;;2.30;99.90;;;;;;5091258;28;20205;-65
2022/03/07 02:53:13;;;;;;;1.90;1.80;;;2.30;99.90;;;;;;5088886;28;20245;-65
2022/03/07 02:55:40;;;;;;;1.90;1.80;;;2.40;99.90;;;;;;5067291;28;20210;-63
2022/03/07 02:58:08;;;;;;;1.90;1.80;;;2.50;99.90;;;;;;5075255;28;20231;-64
2022/03/07 03:00:35;;;;;;;1.95;1.85;;;2.40;99.90;;;;;;5075499;28;20242;-64
2022/03/07 03:03:02;;;;;;;1.73;1.63;;;2.40;99.90;;;;;;5075207;28;20595;-65
2022/03/07 03:05:29;;;;;;;1.87;1.77;;;2.30;99.90;;;;;;5074897;28;20239;-64
2022/03/07 03:07:56;;;;;;;1.88;1.77;;;2.30;99.90;;;;;;5074952;28;20226;-64
2022/03/07 03:10:23;;;;;;;2.00;1.90;;;2.20;99.90;;;;;;5074980;28;20203;-63
2022/03/07 03:12:50;;;;;;;1.92;1.83;;;2.20;99.90;;;;;;5074774;28;20723;-63
2022/03/07 03:15:19;;;;;;;1.75;1.65;;;2.10;99.90;;;;;;5074882;28;20211;-64
2022/03/07 03:17:46;;;;;;;1.88;1.77;;;2.10;99.90;;;;;;5075460;28;20231;-65
2022/03/07 03:20:15;;;;;;;1.90;1.80;;;2.10;99.90;;;;;;5075070;28;20207;-63
2022/03/07 03:22:44;;;;;;;1.90;1.80;;;2.10;99.90;;;;;;5084893;28;20269;-64
2022/03/07 03:25:15;;;;;;;1.80;1.70;;;2.10;99.90;;;;;;5075890;28;20294;-63
2022/03/07 03:27:42;;;;;;;1.90;1.80;;;2.00;99.90;;;;;;5075521;28;20313;-63
2022/03/07 03:30:11;;;;;;;2.20;2.10;;;1.90;99.90;;;;;;5082562;28;20279;-63
2022/03/07 03:32:40;;;;;;;2.20;2.10;;;1.90;99.90;;;;;;5082997;28;20759;-63
2022/03/07 03:35:08;;;;;;;2.08;1.98;;;2.00;99.90;;;;;;5074551;28;20206;-64
2022/03/07 03:37:35;;;;;;;2.20;2.10;;;2.10;99.90;;;;;;5074967;28;20291;-65
2022/03/07 03:40:02;;;;;;;1.97;1.87;;;2.00;99.90;;;;;;5075021;28;20270;-65
2022/03/07 03:42:29;;;;;;;1.80;1.70;;;2.10;99.90;;;;;;5074828;28;20256;-64
2022/03/07 03:44:55;;;;;;;1.65;1.63;;;2.00;99.90;;;;;;5074225;28;20239;-63
2022/03/07 03:47:22;;;;;;;1.58;1.58;;;1.90;99.90;;;;;;5074616;28;20679;-63
2022/03/07 03:49:51;;;;;;;1.88;1.77;;;2.00;99.90;;;;;;5074734;28;20638;-63
2022/03/07 03:52:18;;;;;;;2.00;1.90;;;1.90;99.90;;;;;;5074131;28;20243;-64
2022/03/07 03:54:45;;;;;;;2.00;1.90;;;1.90;99.90;;;;;;5073932;28;20286;-64
2022/03/07 03:57:12;;;;;;;1.85;1.75;;;1.90;99.90;;;;;;5074367;28;20290;-65
2022/03/07 03:59:38;;;;;;;1.75;1.65;;;1.80;99.90;;;;;;5076453;28;20207;-64
2022/03/07 04:02:05;;;;;;;1.88;1.77;;;1.90;99.90;;;;;;5074721;28;20294;-64
2022/03/07 04:04:32;;;;;;;1.90;1.80;;;1.90;99.90;;;;;;5075666;28;20203;-65
2022/03/07 04:07:01;;;;;;;1.70;1.60;;;1.90;99.90;;;;;;5075553;28;20199;-64
2022/03/07 04:09:28;;;;;;;2.13;1.85;;;1.90;99.90;;;;;;5075047;28;20323;-65
2022/03/07 04:11:55;;;;;;;1.90;1.80;;;1.90;99.90;;;;;;5074855;28;20286;-64
2022/03/07 04:14:22;;;;;;;1.65;1.60;;;1.90;99.90;;;;;;5074973;28;20543;-64
2022/03/07 04:16:49;;;;;;;1.80;1.70;;;1.90;99.90;;;;;;5074795;28;20615;-63
2022/03/07 04:19:16;;;;;;;1.80;1.70;;;1.90;99.90;;;;;;5074717;28;20203;-64
2022/03/07 04:21:44;;;;;;;1.80;1.70;;;1.90;99.90;;;;;;5074827;28;20210;-64
2022/03/07 04:24:13;;;;;;;1.88;1.77;;;1.90;99.90;;;;;;5074474;28;20242;-65
2022/03/07 04:26:41;;;;;;;1.73;1.63;;;1.90;99.90;;;;;;5074761;28;20207;-63
2022/03/07 04:29:09;;;;;;;1.95;1.85;;;1.90;99.90;;;;;;5093813;28;20286;-64
2022/03/07 04:31:36;;;;;;;1.98;1.88;;;1.80;99.90;;;;;;5094401;28;20195;-64
2022/03/07 04:34:03;;;;;;;1.73;1.63;;;1.90;99.90;;;;;;5093897;28;20231;-65
2022/03/07 04:36:30;;;;;;;1.80;1.70;;;1.90;99.90;;;;;;5088255;28;20218;-64
2022/03/07 04:38:57;;;;;;;1.90;1.80;;;1.90;99.90;;;;;;5074159;28;20616;-65
2022/03/07 04:41:27;;;;;;;1.80;1.70;;;1.90;99.90;;;;;;5073447;28;20286;-64
2022/03/07 04:43:54;;;;;;;2.03;1.92;;;1.90;99.90;;;;;;5073744;28;20269;-63
2022/03/07 04:46:20;;;;;;;1.80;1.70;;;1.90;99.90;;;;;;5077405;28;20227;-64
2022/03/07 04:48:47;;;;;;;1.70;1.60;;;2.00;99.90;;;;;;5074994;28;20226;-65
2022/03/07 04:51:15;;;;;;;1.92;1.83;;;2.00;99.90;;;;;;5075345;28;20300;-64
2022/03/07 04:53:42;;;;;;;1.90;1.80;;;2.00;99.90;;;;;;5082994;28;20266;-64
2022/03/07 04:56:10;;;;;;;1.80;1.70;;;2.00;99.90;;;;;;5086111;28;20275;-65
2022/03/07 04:58:38;;;;;;;1.85;1.75;;;2.00;99.90;;;;;;5083687;28;20668;-64
2022/03/07 05:01:06;;;;;;;2.00;1.90;;;2.00;99.90;;;;;;5076553;28;20233;-65
2022/03/07 05:03:33;;;;;;;1.73;1.63;;;1.90;99.90;;;;;;5075585;28;20313;-64
2022/03/07 05:06:00;;;;;;;1.80;1.70;;;1.90;99.90;;;;;;5078810;28;20276;-64
2022/03/07 05:08:27;;;;;;;1.85;1.75;;;1.90;99.90;;;;;;5078027;28;20254;-63
2022/03/07 05:10:54;;;;;;;1.45;1.45;;;1.90;99.90;;;;;;5076628;28;20363;-64
2022/03/07 05:13:20;;;;;;;1.70;1.60;;;1.90;99.90;;;;;;5075017;28;20938;-64
2022/03/07 05:15:49;;;;;;;1.90;1.80;;;1.90;99.90;;;;;;5065344;28;20245;-64
2022/03/07 05:18:16;;;;;;;1.80;1.70;;;1.80;99.90;;;;;;5074121;28;20349;-66
2022/03/07 05:20:43;;;;;;;1.80;1.70;;;1.70;99.90;;;;;;5073748;28;20225;-63
2022/03/07 05:23:10;;;;;;;1.85;1.75;;;1.60;99.90;;;;;;5075077;28;20325;-64
2022/03/07 05:25:36;;;;;;;1.77;1.67;;;1.70;99.90;;;;;;5075458;28;20309;-65
2022/03/07 05:28:04;;;;;;;1.50;1.50;;;1.70;99.90;;;;;;5077112;28;20265;-64
2022/03/07 05:30:31;;;;;;;1.95;1.85;;;1.60;99.90;;;;;;5089779;28;20235;-64
2022/03/07 05:32:59;;;;;;;1.80;1.70;;;1.60;99.90;;;;;;5076756;28;20258;-65
2022/03/07 05:35:26;;;;;;;2.20;2.10;;;1.70;99.90;;;;;;5075040;28;20621;-64
2022/03/07 05:37:53;;;;;;;1.65;1.55;;;1.50;99.90;;;;;;5076404;28;20299;-63
2022/03/07 05:40:20;;;;;;;1.80;1.70;;;1.50;99.90;;;;;;5075395;28;20203;-65
2022/03/07 05:42:47;;;;;;;1.80;1.70;;;1.40;99.90;;;;;;5082827;28;20310;-63
2022/03/07 05:45:15;;;;;;;1.65;1.55;;;1.40;99.90;;;;;;5063666;28;20293;-65
2022/03/07 05:47:42;;;;;;;2.00;1.90;;;1.40;99.90;;;;;;5072493;28;20199;-64
2022/03/07 05:50:11;;;;;;;1.90;1.80;;;1.40;99.90;;;;;;5077453;28;20233;-64
2022/03/07 05:52:39;;;;;;;1.80;1.70;;;1.40;99.90;;;;;;5090896;28;20302;-65
2022/03/07 05:55:07;;;;;;;1.90;1.80;;;1.30;99.90;;;;;;5089204;28;20293;-63
2022/03/07 05:57:34;;;;;;;1.92;1.83;;;1.30;99.90;;;;;;5073284;28;20283;-64
2022/03/07 06:00:01;;;;;;;1.70;1.60;;;1.30;99.90;;;;;;5060946;28;20285;-64
2022/03/07 06:02:28;;;;;;;1.85;1.75;;;1.30;99.90;;;;;;5062331;28;20761;-61
2022/03/07 06:04:55;;;;;;;1.73;1.63;;;3.50;99.90;;;;;;5052449;28;20282;-62
2022/03/07 06:07:24;;;;;;;2.13;1.92;;;5.30;99.90;;;;;;5071347;28;20295;-61
2022/03/07 06:09:50;;;;;;;1.60;1.50;;;6.70;99.90;;;;;;5081032;28;20255;-62
2022/03/07 06:12:17;;;;;;;1.80;1.70;;;7.80;99.90;;;;;;5065119;28;20486;-64
2022/03/07 06:14:44;;;;;;;2.03;1.85;;;8.00;99.90;;;;;;5057311;28;20228;-65
2022/03/07 06:17:11;;;;;;;1.67;1.58;;;6.90;99.90;;;;;;5075650;28;20221;-66
2022/03/07 06:19:38;;;;;;;1.70;1.60;;;5.70;99.90;;;;;;5084743;28;20574;-64
2022/03/07 06:22:05;;;;;;;1.40;1.40;;;4.80;99.90;;;;;;5088895;28;20227;-64
2022/03/07 06:24:33;;;;;;;1.80;1.70;;;4.20;99.90;;;;;;5088466;28;20235;-64
2022/03/07 06:27:00;;;;;;;1.73;1.63;;;3.80;99.90;;;;;;5097428;28;20198;-65
2022/03/07 06:29:28;;;;;;;1.70;1.60;;;3.40;99.90;;;;;;5087660;28;20227;-64
2022/03/07 06:31:55;;;;;;;1.70;1.60;;;3.20;99.90;;;;;;5087859;28;20215;-64
2022/03/07 06:34:22;;;;;;;1.42;1.40;;;3.00;99.90;;;;;;5057695;28;20226;-65
2022/03/07 06:36:50;;;;;;;1.63;1.58;;;2.80;99.90;;;;;;5064460;28;20291;-65
2022/03/07 06:39:17;;;;;;;1.60;1.60;;;2.70;99.90;;;;;;5062815;28;20654;-64
2022/03/07 06:41:45;;;;;;;1.90;1.80;;;2.60;99.90;;;;;;5070210;28;20286;-64
2022/03/07 06:44:12;;;;;;;1.73;1.63;;;2.50;99.90;;;;;;5072289;28;20219;-65
2022/03/07 06:46:39;;;;;;;1.70;1.60;;;2.50;99.90;;;;;;5065007;28;20200;-63
2022/03/07 06:49:06;;;;;;;1.55;1.52;;;2.50;99.90;;;;;;5066507;28;20353;-64
2022/03/07 06:51:33;;;;;;;1.80;1.70;;;2.50;99.90;;;;;;5067402;28;20732;-64
2022/03/07 06:54:01;;;;;;;1.58;1.55;;;2.50;99.90;;;;;;5059269;28;20224;-65
2022/03/07 06:56:28;;;;;;;1.90;1.80;;;2.50;99.90;;;;;;5077697;28;20263;-66
2022/03/07 06:58:56;;;;;;;2.50;2.30;;;2.40;99.90;;;;;;5070075;28;20709;-65
2022/03/07 07:01:23;;;;;;;1.90;1.80;;;2.40;99.90;;;;;;5075621;28;20209;-64
2022/03/07 07:03:50;;;;;;;1.95;1.85;;;2.40;99.90;;;;;;5063780;28;20215;-64
2022/03/07 07:06:17;;;;;;;1.90;1.80;;;2.50;99.90;;;;;;5073167;28;20283;-65
2022/03/07 07:08:44;;;;;;;1.70;1.60;;;2.50;99.90;;;;;;5057394;28;20319;-65
2022/03/07 07:11:11;;;;;;;1.77;1.67;;;2.50;99.90;;;;;;5062213;28;20203;-65
2022/03/07 07:13:38;;;;;;;1.58;1.58;;;2.60;99.90;;;;;;5055262;28;20228;-64
2022/03/07 07:16:06;;;;;;;1.70;1.60;;;2.60;99.90;;;;;;5055616;28;20207;-64
2022/03/07 07:18:33;;;;;;;1.73;1.63;;;2.70;99.90;;;;;;5055154;28;20287;-65
2022/03/07 07:21:00;;;;;;;1.88;1.77;;;2.70;99.90;;;;;;5055158;28;20254;-65
2022/03/07 07:23:27;;;;;;;1.83;1.73;;;2.70;99.90;;;;;;5054786;28;20244;-65
2022/03/07 07:25:55;;;;;;;1.90;1.70;;;2.80;99.90;;;;;;5067411;28;20211;-64
2022/03/07 07:28:22;;;;;;;1.95;1.85;;;2.80;99.90;;;;;;5071292;28;20192;-65
2022/03/07 07:30:49;;;;;;;1.83;1.73;;;2.90;99.90;;;;;;5096234;28;20214;-66
2022/03/07 07:33:17;;;;;;;2.13;2.03;;;3.00;99.90;;;;;;5055565;28;20594;-64
2022/03/07 07:35:44;;;;;;;1.95;1.85;;;3.00;99.90;;;;;;5080905;28;20196;-64
2022/03/07 07:38:11;;;;;;;1.90;1.80;;;3.00;99.90;;;;;;5066438;28;20231;-64
2022/03/07 07:40:38;;;;;;;2.30;2.20;;;3.20;99.90;;;;;;5074778;28;20234;-64
2022/03/07 07:43:05;;;;;;;2.00;1.90;;;3.20;99.90;;;;;;5074842;28;20223;-64
2022/03/07 07:45:32;;;;;;;2.20;2.10;;;3.40;99.90;;;;;;5073920;28;20209;-65
2022/03/07 07:47:59;;;;;;;1.87;1.77;;;3.40;99.90;;;;;;5083450;28;20230;-64
2022/03/07 07:50:28;;;;;;;2.10;2.00;;;3.50;99.90;;;;;;5087087;28;20220;-63
2022/03/07 07:52:55;;;;;;;2.00;1.90;;;3.50;99.90;;;;;;5087522;28;20321;-65
2022/03/07 07:55:22;;;;;;;1.50;1.50;;;3.60;99.90;;;;;;5085848;28;20370;-63
2022/03/07 07:57:49;;;;;;;2.10;2.00;;;3.70;99.90;;;;;;5088011;28;20234;-64
2022/03/07 08:00:20;;;;;;;1.88;1.77;;;3.70;99.90;;;;;;5085325;28;20855;-64
2022/03/07 08:02:47;;;;;;;2.03;1.92;;;3.80;99.90;;;;;;5086007;28;20218;-65
2022/03/07 08:05:15;;;;;;;2.25;2.10;;;3.90;99.90;;;;;;5082003;28;20202;-66
2022/03/07 08:07:43;;;;;;;3.15;2.95;;;3.90;99.90;;;;;;5092847;28;20558;-66
2022/03/07 08:10:11;;;;;;;2.30;2.20;;;3.90;99.90;;;;;;5068992;28;20259;-65
2022/03/07 08:12:38;;;;;;;2.17;2.07;;;3.90;99.90;;;;;;5087979;28;20306;-66
2022/03/07 08:15:11;;;;;;;2.50;2.40;;;4.00;99.90;;;;;;5071333;28;20620;-65
2022/03/07 08:17:38;;;;;;;2.13;2.03;;;4.00;99.90;;;;;;5067137;28;20286;-65
2022/03/07 08:20:06;;;;;;;2.20;2.10;;;4.20;99.90;;;;;;5078885;28;20273;-63
2022/03/07 08:25:06;;;;;;;2.20;2.00;;;4.60;99.90;;;;;;5072278;28;20219;-64
2022/03/07 08:27:34;;;;;;;2.30;2.20;;;4.70;99.90;;;;;;5072636;28;20203;-62
2022/03/07 08:30:01;;;;;;;2.10;2.00;;;4.80;99.90;;;;;;5076058;28;20280;-61
2022/03/07 08:32:28;;;;;;;1.80;1.70;;;4.90;99.90;;;;;;5059753;28;20299;-62
2022/03/07 08:34:57;;;;;;;2.00;1.90;;;5.00;99.90;;;;;;5052588;28;20274;-62
2022/03/07 08:37:23;;;;;;;1.80;1.70;;;5.10;99.90;;;;;;5065865;28;20204;-62
2022/03/07 08:39:50;;;;;;;1.90;1.80;;;5.20;99.90;;;;;;5063290;28;20243;-64
2022/03/07 08:42:19;;;;;;;2.05;1.95;;;5.30;99.90;;;;;;5052807;28;20602;-62
2022/03/07 08:44:46;;;;;;;2.03;1.92;;;5.50;99.90;;;;;;5052066;28;20277;-64
2022/03/07 08:47:13;;;;;;;1.77;1.67;;;5.50;99.90;;;;;;5052502;28;20200;-63
2022/03/07 08:49:40;;;;;;;2.00;1.90;;;5.60;99.90;;;;;;5052151;28;20223;-64
2022/03/07 08:52:08;;;;;;;1.80;1.70;;;5.70;99.90;;;;;;5052341;28;20600;-64
2022/03/07 08:54:35;;;;;;;1.88;1.77;;;5.80;99.90;;;;;;5052617;28;20243;-63
2022/03/07 08:57:02;;;;;;;2.15;2.05;;;5.90;99.90;;;;;;5051619;28;20383;-64
2022/03/07 08:59:30;;;;;;;2.00;1.90;;;5.90;99.90;;;;;;5051847;28;20235;-63
2022/03/07 09:01:57;;;;;;;2.10;2.00;;;6.00;99.90;;;;;;5052220;28;20208;-64
2022/03/07 09:04:25;;;;;;;1.90;1.80;;;6.10;99.90;;;;;;5051818;28;20224;-63
2022/03/07 09:06:52;;;;;;;2.10;2.00;;;6.10;99.90;;;;;;5052070;28;20207;-64
2022/03/07 09:09:19;;;;;;;2.20;2.10;;;6.10;99.90;;;;;;5051329;28;20230;-63
2022/03/07 09:11:46;;;;;;;4.65;2.15;;;6.00;99.90;;;;;;5051786;28;20239;-63
2022/03/07 09:14:13;;;;;;;2.13;2.03;;;5.90;99.90;;;;;;5051552;28;20734;-63
2022/03/07 09:16:42;;;;;;;2.30;2.15;;;5.90;99.90;;;;;;5051818;28;20208;-62
2022/03/07 09:19:09;;;;;;;2.00;1.90;;;6.00;99.90;;;;;;5051186;28;20216;-63
2022/03/07 09:21:36;;;;;;;1.85;1.75;;;6.20;99.90;;;;;;5051716;28;20200;-64
2022/03/07 09:24:03;;;;;;;2.08;1.98;;;6.20;99.90;;;;;;5051037;28;20326;-63
2022/03/07 09:26:30;;;;;;;2.00;1.90;;;6.30;99.90;;;;;;5051801;28;20231;-63
2022/03/07 09:28:57;;;;;;;2.05;1.95;;;6.40;99.90;;;;;;5051543;28;20200;-64
2022/03/07 09:31:24;;;;;;;2.33;1.95;;;6.40;99.90;;;;;;5051596;28;20286;-64
2022/03/07 09:33:52;;;;;;;2.10;2.00;;;6.40;99.90;;;;;;5050867;28;20228;-63
2022/03/07 09:36:19;;;;;;;2.23;2.10;;;6.40;99.90;;;;;;5052258;28;20265;-62
2022/03/07 09:38:46;;;;;;;2.10;2.00;;;6.30;99.90;;;;;;5053444;28;20287;-63
2022/03/07 09:41:13;;;;;;;2.60;2.10;;;6.50;99.90;;;;;;5054399;28;20244;-63
2022/03/07 09:43:40;;;;;;;2.25;2.15;;;6.50;99.90;;;;;;5054691;28;20247;-63
2022/03/07 09:46:07;;;;;;;2.08;1.98;;;6.50;99.90;;;;;;5054658;28;20532;-63
2022/03/07 09:48:34;;;;;;;2.53;2.33;;;6.60;99.90;;;;;;5053361;28;20319;-64
2022/03/07 09:51:03;;;;;;;2.10;2.00;;;6.70;99.90;;;;;;5051185;28;20310;-62
2022/03/07 09:53:29;;;;;;;2.80;2.60;;;6.80;99.90;;;;;;5053464;28;20234;-63
2022/03/07 09:55:56;;;;;;;2.10;2.00;;;6.90;99.90;;;;;;5053775;28;20741;-63
2022/03/07 09:58:23;;;;;;;2.80;2.60;;;7.00;99.90;;;;;;5053635;28;20351;-63
2022/03/07 10:00:50;;;;;;;2.13;2.03;;;7.00;99.90;;;;;;5053083;28;20287;-63
2022/03/07 10:03:19;;;;;;;1.95;1.85;;;7.10;99.90;;;;;;5051241;28;20310;-62
2022/03/07 10:05:47;;;;;;;2.20;2.10;;;7.10;99.90;;;;;;5051205;28;20230;-63
2022/03/07 10:08:25;;;;;;;2.50;2.40;;;7.10;99.90;;;;;;5050526;28;20214;-62
2022/03/07 10:10:53;;;;;;;2.30;2.20;;;7.10;99.90;;;;;;5052139;28;20269;-63
2022/03/07 10:13:22;;;;;;;2.53;2.33;;;7.20;99.90;;;;;;5053853;28;20264;-63
2022/03/07 10:15:58;;;;;;;2.00;1.90;;;7.20;99.90;;;;;;5051247;28;20290;-63
2022/03/07 10:18:25;;;;;;;2.10;2.00;;;7.30;99.90;;;;;;5051710;28;20192;-63
2022/03/07 10:20:53;;;;;;;2.22;2.13;;;7.30;99.90;;;;;;5051074;28;20292;-63
2022/03/07 10:23:21;;;;;;;2.10;2.00;;;7.40;99.90;;;;;;5050966;28;20239;-63
2022/03/07 10:25:49;;;;;;;2.30;2.20;;;7.60;99.90;;;;;;5050842;28;20203;-63
2022/03/07 10:28:16;;;;;;;2.40;2.30;;;7.60;99.90;;;;;;5051217;28;20227;-63
2022/03/07 10:30:43;;;;;;;2.13;1.98;;;7.80;99.90;;;;;;5050823;28;20224;-63
2022/03/07 10:33:11;;;;;;;2.03;1.92;;;7.70;99.90;;;;;;5050719;28;20232;-64
2022/03/07 10:35:48;;;;;;;2.13;2.03;;;7.80;99.90;;;;;;5050554;28;20711;-62
2022/03/07 10:38:17;;;;;;;2.75;2.58;;;7.90;99.90;;;;;;5050583;28;20325;-62
2022/03/07 10:40:47;;;;;;;2.10;2.00;;;7.90;99.90;;;;;;5050458;28;20263;-63
2022/03/07 10:43:16;;;;;;;2.10;2.00;;;7.90;99.90;;;;;;5050566;28;20736;-63
2022/03/07 10:45:48;;;;;;;1.80;1.70;;;7.90;99.90;;;;;;5051922;28;20206;-63
2022/03/07 10:48:16;;;;;;;1.88;1.77;;;8.10;99.90;;;;;;5055008;28;20285;-64
2022/03/07 10:50:48;;;;;;;2.15;2.05;;;8.20;99.90;;;;;;5054538;28;20228;-63
2022/03/07 10:53:15;;;;;;;2.20;2.10;;;8.30;99.90;;;;;;5054496;28;20323;-62
2022/03/07 10:55:51;;;;;;;2.20;2.10;;;8.30;99.90;;;;;;5054334;28;20299;-62
2022/03/07 10:58:20;;;;;;;2.55;2.35;;;8.30;99.60;;;;;;5054565;28;20218;-64
2022/03/07 11:00:51;;;;;;;2.20;1.98;;;8.30;99.50;;;;;;5054791;28;20286;-62
2022/03/07 11:03:20;;;;;;;2.30;2.20;;;8.30;99.10;;;;;;5055939;28;20645;-63
2022/03/07 11:05:47;;;;;;;2.10;2.00;;;8.30;99.10;;;;;;5056782;28;20212;-63
2022/03/07 11:08:15;;;;;;;2.38;2.28;;;8.40;99.50;;;;;;5055677;28;20210;-63
2022/03/07 11:10:45;;;;;;;1.90;1.80;;;8.10;99.30;;;;;;5054507;28;20263;-64
2022/03/07 11:13:14;;;;;;;2.05;1.95;;;8.30;99.20;;;;;;5054411;28;20361;-63
2022/03/07 11:15:43;;;;;;;2.20;2.10;;;8.40;98.70;;;;;;5054343;28;20291;-63
2022/03/07 11:18:12;;;;;;;2.35;2.25;;;8.50;98.50;;;;;;5054191;28;20302;-63
2022/03/07 11:20:41;;;;;;;2.40;2.30;;;8.30;98.40;;;;;;5054106;28;20203;-64
2022/03/07 11:23:08;;;;;;;2.15;2.05;;;8.40;98.60;;;;;;5054146;28;20235;-61
2022/03/07 11:25:37;;;;;;;2.20;2.10;;;8.50;98.60;;;;;;5054635;28;20223;-63
2022/03/07 11:28:04;;;;;;;2.00;1.90;;;8.60;98.90;;;;;;5054177;28;20696;-64
2022/03/07 11:30:35;;;;;;;2.40;2.30;;;8.50;98.30;;;;;;5053399;28;20311;-63
2022/03/07 11:33:11;;;;;;;2.42;2.33;;;8.70;98.50;;;;;;5053815;28;20224;-64
2022/03/07 11:35:41;;;;;;;1.95;1.85;;;8.90;98.20;;;;;;5053987;28;20211;-64
2022/03/07 11:38:16;;;;;;;1.90;1.80;;;8.70;97.90;;;;;;5054091;28;20356;-63
2022/03/07 11:40:58;;;;;;;2.10;2.00;;;8.90;98.20;;;;;;5053573;28;20188;-64
2022/03/07 11:43:25;;;;;;;2.40;2.30;;;8.70;97.90;;;;;;5053731;28;20706;-63
2022/03/07 11:45:52;;;;;;;2.20;2.10;;;8.70;97.80;;;;;;5054110;28;20365;-64
2022/03/07 11:48:21;;;;;;;2.10;2.00;;;8.70;97.90;;;;;;5053494;28;20373;-63
2022/03/07 11:50:49;;;;;;;2.00;1.90;;;8.80;98.00;;;;;;5053880;28;20315;-63
2022/03/07 11:53:16;;;;;;;1.92;1.83;;;8.80;98.20;;;;;;5053653;28;20295;-63
2022/03/07 11:55:45;;;;;;;2.08;1.98;;;9.00;98.00;;;;;;5053361;28;20219;-63
2022/03/07 11:58:12;;;;;;;2.20;2.10;;;9.10;97.70;;;;;;5053769;28;20219;-62
2022/03/07 12:00:40;;;;;;;2.10;2.00;;;9.20;97.00;;;;;;5053865;28;20200;-63
2022/03/07 12:03:12;;;;;;;2.28;2.15;;;9.00;97.00;;;;;;5057884;28;20390;-62
2022/03/07 12:05:41;;;;;;;2.20;2.10;;;9.00;97.30;;;;;;5053646;28;20211;-64
2022/03/07 12:08:11;;;;;;;2.20;2.10;;;9.10;97.50;;;;;;5053569;28;20296;-62
2022/03/07 12:10:39;;;;;;;2.17;2.08;;;9.10;97.30;;;;;;5053500;28;20310;-63
2022/03/07 12:13:11;;;;;;;2.30;2.20;;;9.00;96.70;;;;;;5053362;28;20234;-63
2022/03/07 12:15:46;;;;;;;2.28;2.17;;;9.00;97.00;;;;;;5054329;28;20294;-63
2022/03/07 12:18:13;;;;;;;1.98;1.88;;;9.00;96.70;;;;;;5053360;28;20576;-63
2022/03/07 12:20:49;;;;;;;2.20;2.10;;;8.90;97.40;;;;;;5053535;28;20562;-63
2022/03/07 12:23:18;;;;;;;2.20;2.10;;;9.10;97.30;;;;;;5052870;28;20355;-63
2022/03/07 12:25:45;;;;;;;2.10;2.00;;;9.00;96.70;;;;;;5053135;28;20693;-63
2022/03/07 12:28:12;;;;;;;2.10;2.00;;;9.00;96.70;;;;;;5053345;28;20210;-62
2022/03/07 12:30:39;;;;;;;2.53;2.30;;;9.00;96.70;;;;;;5053472;28;20520;-65
2022/03/07 12:33:08;;;;;;;2.25;2.15;;;9.10;97.00;;;;;;5066740;28;20259;-63
2022/03/07 12:35:35;;;;;;;2.13;2.03;;;9.20;96.80;;;;;;5065093;28;20458;-64
2022/03/07 12:38:07;;;;;;;2.30;2.20;;;9.20;96.70;;;;;;5056223;28;20709;-64
2022/03/07 12:40:35;;;;;;;2.42;2.20;;;9.20;96.80;;;;;;5052308;28;20212;-63
2022/03/07 12:43:03;;;;;;;1.88;1.77;;;9.10;96.40;;;;;;5052801;28;20323;-64
2022/03/07 12:45:30;;;;;;;2.10;2.00;;;9.20;96.50;;;;;;5052363;28;20732;-63
2022/03/07 12:47:56;;;;;;;2.33;2.22;;;9.10;96.00;;;;;;5052663;28;20203;-64
2022/03/07 12:50:28;;;;;;;2.00;1.90;;;9.20;96.60;;;;;;5052485;28;20314;-65
2022/03/07 12:52:55;;;;;;;2.30;2.20;;;9.20;96.50;;;;;;5052278;28;20261;-64
2022/03/07 12:55:23;;;;;;;2.10;2.00;;;9.20;96.60;;;;;;5052698;28;20229;-64
2022/03/07 12:57:56;;;;;;;2.40;2.30;;;9.10;96.50;;;;;;5054079;28;20295;-63
2022/03/07 13:00:24;;;;;;;2.10;2.00;;;9.10;96.90;;;;;;5052974;28;20268;-63
2022/03/07 13:02:53;;;;;;;2.05;1.95;;;9.20;96.80;;;;;;5051841;28;20733;-63